PWSweather.com
Personal Weather Stations
Station Observations

ChardChardGB

Lat: 50.877408, Lon: -2.94964741

Elevation: 341

Station Type: WS3083

http://www.merriott-astro.co.uk/weather/index.htm

High Low Average
Temperature 76.8°F24.9°C 52.7°F11.5°C 64.0°F17.8°C
Dew Point 57.0°F13.9°C 42.4°F5.8°C 53.1°F11.7°C
Winds 8.9 mph 14.3 kmh 0.9 mph 1.4 kmh 5.0 mph SSW8.0 kmh SSW
Wind Gusts 13.6 mph21.9 kmh 2.2 mph3.5 kmh 7.0 mph11.3 kmh
Humidity 100% 32% 71%
Pressure 30.08 in1018.6 mb 29.81 in1009.5 mb -
Precipitation 0.01 in0.3 mm - -
Hour Temp Dew Point Humidity Winds Wind Gusts Pressure Precip Precip Rate Daily Precip Total
12:00 AM 52.9°F11.6°C 50.6°F10.3°C 92% 3.7 mph S6.0 kmh S 5.4 mph8.7 kmh 30.08 in1018.6 mb 0.00 in0.0 mm 0.00 in0.0 mm 0.00 in0.0 mm
12:10 AM 53.1°F11.7°C 51.1°F10.6°C 93% 3.7 mph SSW6.0 kmh SSW 4.5 mph7.2 kmh 30.08 in1018.6 mb 0.00 in0.0 mm 0.00 in0.0 mm 0.00 in0.0 mm
12:20 AM 52.7°F11.5°C 50.7°F10.4°C 93% 3.2 mph SSW5.1 kmh SSW 4.5 mph7.2 kmh 30.07 in1018.3 mb 0.00 in0.0 mm 0.00 in0.0 mm 0.00 in0.0 mm
12:30 AM 53.4°F11.9°C 51.7°F10.9°C 94% 3.6 mph SSW5.8 kmh SSW 4.5 mph7.2 kmh 30.08 in1018.6 mb 0.00 in0.0 mm 0.00 in0.0 mm 0.00 in0.0 mm
12:40 AM 53.2°F11.8°C 51.6°F10.9°C 94% 2.2 mph W3.5 kmh W 4.5 mph7.2 kmh 30.08 in1018.6 mb 0.00 in0.0 mm 0.00 in0.0 mm 0.00 in0.0 mm
12:50 AM 53.8°F12.1°C 52.4°F11.3°C 95% 2.7 mph SW4.3 kmh SW 3.8 mph6.1 kmh 30.08 in1018.6 mb 0.00 in0.0 mm 0.00 in0.0 mm 0.00 in0.0 mm
01:00 AM 53.4°F11.9°C 52.0°F11.1°C 95% 2.7 mph SW4.3 kmh SW 4.5 mph7.2 kmh 30.08 in1018.6 mb 0.00 in0.0 mm 0.00 in0.0 mm 0.00 in0.0 mm
01:10 AM 53.8°F12.1°C 52.7°F11.5°C 96% 3.5 mph S5.6 kmh S 5.4 mph8.7 kmh 30.07 in1018.3 mb 0.00 in0.0 mm 0.00 in0.0 mm 0.00 in0.0 mm
01:20 AM 53.1°F11.7°C 52.0°F11.1°C 96% 1.4 mph S2.3 kmh S 2.2 mph3.5 kmh 30.08 in1018.6 mb 0.00 in0.0 mm 0.00 in0.0 mm 0.00 in0.0 mm
01:30 AM 53.2°F11.8°C 52.1°F11.2°C 96% 0.9 mph S1.4 kmh S 2.2 mph3.5 kmh 30.08 in1018.6 mb 0.00 in0.0 mm 0.00 in0.0 mm 0.00 in0.0 mm
01:40 AM 53.1°F11.7°C 52.0°F11.1°C 96% 1.5 mph SW2.4 kmh SW 2.2 mph3.5 kmh 30.07 in1018.3 mb 0.00 in0.0 mm 0.00 in0.0 mm 0.00 in0.0 mm
01:50 AM 53.6°F12.0°C 52.8°F11.6°C 97% 2.3 mph WSW3.7 kmh WSW 3.8 mph6.1 kmh 30.07 in1018.3 mb 0.00 in0.0 mm 0.00 in0.0 mm 0.00 in0.0 mm
02:00 AM 53.4°F11.9°C 52.6°F11.4°C 97% 2.8 mph SW4.5 kmh SW 5.4 mph8.7 kmh 30.08 in1018.6 mb 0.00 in0.0 mm 0.00 in0.0 mm 0.00 in0.0 mm
02:10 AM 54.0°F12.2°C 53.1°F11.7°C 97% 2.1 mph SW3.4 kmh SW 3.8 mph6.1 kmh 30.07 in1018.3 mb 0.00 in0.0 mm 0.00 in0.0 mm 0.00 in0.0 mm
02:20 AM 53.6°F12.0°C 52.8°F11.6°C 97% 1.3 mph SE2.1 kmh SE 3.1 mph5.0 kmh 30.07 in1018.3 mb 0.00 in0.0 mm 0.00 in0.0 mm 0.00 in0.0 mm
02:30 AM 54.0°F12.2°C 54.0°F12.2°C 100% 1.7 mph SW2.7 kmh SW 3.1 mph5.0 kmh 30.07 in1018.3 mb 0.00 in0.0 mm 0.00 in0.0 mm 0.00 in0.0 mm
02:40 AM 54.0°F12.2°C 54.0°F12.2°C 100% 3.5 mph SSW5.6 kmh SSW 5.4 mph8.7 kmh 30.07 in1018.3 mb 0.00 in0.0 mm 0.00 in0.0 mm 0.00 in0.0 mm
02:50 AM 54.1°F12.3°C 54.1°F12.3°C 100% 4.1 mph S6.6 kmh S 7.6 mph12.2 kmh 30.06 in1017.9 mb 0.00 in0.0 mm 0.00 in0.0 mm 0.00 in0.0 mm
03:00 AM 54.1°F12.3°C 54.1°F12.3°C 100% 2.4 mph WSW3.9 kmh WSW 7.6 mph12.2 kmh 30.06 in1017.9 mb 0.00 in0.0 mm 0.00 in0.0 mm 0.00 in0.0 mm
03:10 AM 54.1°F12.3°C 53.9°F12.2°C 99% 2.8 mph SW4.5 kmh SW 4.5 mph7.2 kmh 30.07 in1018.3 mb 0.00 in0.0 mm 0.00 in0.0 mm 0.00 in0.0 mm
03:20 AM 54.1°F12.3°C 53.9°F12.2°C 99% 2.0 mph SW3.2 kmh SW 5.4 mph8.7 kmh 30.07 in1018.3 mb 0.00 in0.0 mm 0.00 in0.0 mm 0.00 in0.0 mm
03:30 AM 54.3°F12.4°C 54.1°F12.3°C 99% 4.2 mph SSW6.8 kmh SSW 6.9 mph11.1 kmh 30.06 in1017.9 mb 0.00 in0.0 mm 0.00 in0.0 mm 0.00 in0.0 mm
03:40 AM 54.3°F12.4°C 54.1°F12.3°C 99% 2.9 mph S4.7 kmh S 4.5 mph7.2 kmh 30.05 in1017.6 mb 0.00 in0.0 mm 0.00 in0.0 mm 0.00 in0.0 mm
03:50 AM 54.5°F12.5°C 53.4°F11.9°C 96% 2.8 mph SW4.5 kmh SW 3.8 mph6.1 kmh 30.06 in1017.9 mb 0.00 in0.0 mm 0.00 in0.0 mm 0.00 in0.0 mm
04:00 AM 54.5°F12.5°C 53.7°F12.1°C 97% 3.8 mph SSW6.1 kmh SSW 6.9 mph11.1 kmh 30.05 in1017.6 mb 0.00 in0.0 mm 0.00 in0.0 mm 0.00 in0.0 mm
04:10 AM 54.7°F12.6°C 53.9°F12.2°C 97% 3.9 mph SW6.3 kmh SW 6.0 mph9.7 kmh 30.05 in1017.6 mb 0.00 in0.0 mm 0.00 in0.0 mm 0.00 in0.0 mm
04:20 AM 54.7°F12.6°C 53.9°F12.2°C 97% 3.9 mph S6.3 kmh S 6.0 mph9.7 kmh 30.06 in1017.9 mb 0.00 in0.0 mm 0.00 in0.0 mm 0.00 in0.0 mm
04:30 AM 54.7°F12.6°C 53.9°F12.2°C 97% 3.3 mph S5.3 kmh S 4.5 mph7.2 kmh 30.05 in1017.6 mb 0.00 in0.0 mm 0.00 in0.0 mm 0.00 in0.0 mm
04:40 AM 54.7°F12.6°C 53.9°F12.2°C 97% 3.8 mph SW6.1 kmh SW 6.0 mph9.7 kmh 30.05 in1017.6 mb 0.00 in0.0 mm 0.00 in0.0 mm 0.00 in0.0 mm
04:50 AM 55.0°F12.8°C 54.2°F12.3°C 97% 3.9 mph SW6.3 kmh SW 6.0 mph9.7 kmh 30.05 in1017.6 mb 0.00 in0.0 mm 0.00 in0.0 mm 0.00 in0.0 mm
05:00 AM 54.9°F12.7°C 54.0°F12.2°C 97% 4.8 mph S7.7 kmh S 6.0 mph9.7 kmh 30.05 in1017.6 mb 0.00 in0.0 mm 0.00 in0.0 mm 0.00 in0.0 mm
05:10 AM 55.2°F12.9°C 54.4°F12.4°C 97% 6.0 mph SW9.7 kmh SW 8.3 mph13.4 kmh 30.05 in1017.6 mb 0.00 in0.0 mm 0.00 in0.0 mm 0.00 in0.0 mm
05:20 AM 55.4°F13.0°C 54.6°F12.6°C 97% 4.1 mph S6.6 kmh S 6.9 mph11.1 kmh 30.05 in1017.6 mb 0.00 in0.0 mm 0.00 in0.0 mm 0.00 in0.0 mm
05:30 AM 55.8°F13.2°C 54.9°F12.7°C 97% 4.8 mph SSW7.7 kmh SSW 6.9 mph11.1 kmh 30.05 in1017.6 mb 0.00 in0.0 mm 0.00 in0.0 mm 0.00 in0.0 mm
05:40 AM 55.8°F13.2°C 54.6°F12.6°C 96% 6.4 mph SSW10.3 kmh SSW 9.2 mph14.8 kmh 30.05 in1017.6 mb 0.00 in0.0 mm 0.00 in0.0 mm 0.00 in0.0 mm
05:50 AM 56.3°F13.5°C 54.9°F12.7°C 95% 4.0 mph SW6.4 kmh SW 7.6 mph12.2 kmh 30.05 in1017.6 mb 0.00 in0.0 mm 0.00 in0.0 mm 0.00 in0.0 mm
06:00 AM 56.7°F13.7°C 55.0°F12.8°C 94% 4.8 mph SSW7.7 kmh SSW 6.0 mph9.7 kmh 30.05 in1017.6 mb 0.00 in0.0 mm 0.00 in0.0 mm 0.00 in0.0 mm
06:10 AM 57.9°F14.4°C 55.9°F13.3°C 93% 4.1 mph S6.6 kmh S 6.0 mph9.7 kmh 30.05 in1017.6 mb 0.00 in0.0 mm 0.00 in0.0 mm 0.00 in0.0 mm
06:20 AM 57.9°F14.4°C 54.7°F12.6°C 89% 4.6 mph S7.4 kmh S 9.2 mph14.8 kmh 30.06 in1017.9 mb 0.00 in0.0 mm 0.00 in0.0 mm 0.00 in0.0 mm
06:30 AM 59.2°F15.1°C 54.7°F12.6°C 85% 5.8 mph SW9.3 kmh SW 7.6 mph12.2 kmh 30.06 in1017.9 mb 0.00 in0.0 mm 0.00 in0.0 mm 0.00 in0.0 mm
06:40 AM 61.5°F16.4°C 55.6°F13.1°C 81% 5.3 mph SW8.5 kmh SW 7.6 mph12.2 kmh 30.05 in1017.6 mb 0.00 in0.0 mm 0.00 in0.0 mm 0.00 in0.0 mm
06:50 AM 63.9°F17.7°C 54.7°F12.6°C 72% 5.1 mph NNE8.2 kmh NNE 6.9 mph11.1 kmh 30.06 in1017.9 mb 0.00 in0.0 mm 0.00 in0.0 mm 0.00 in0.0 mm
07:00 AM 62.6°F17.0°C 53.5°F11.9°C 72% 3.5 mph SSW5.6 kmh SSW 5.4 mph8.7 kmh 30.06 in1017.9 mb 0.00 in0.0 mm 0.00 in0.0 mm 0.00 in0.0 mm
07:10 AM 63.9°F17.7°C 54.7°F12.6°C 72% 3.4 mph SSW5.5 kmh SSW 6.0 mph9.7 kmh 30.06 in1017.9 mb 0.00 in0.0 mm 0.00 in0.0 mm 0.00 in0.0 mm
07:20 AM 68.9°F20.5°C 56.2°F13.4°C 64% 2.5 mph S4.0 kmh S 3.8 mph6.1 kmh 30.05 in1017.6 mb 0.00 in0.0 mm 0.00 in0.0 mm 0.00 in0.0 mm
07:30 AM 69.1°F20.6°C 55.1°F12.8°C 61% 4.6 mph S7.4 kmh S 9.2 mph14.8 kmh 30.05 in1017.6 mb 0.00 in0.0 mm 0.00 in0.0 mm 0.00 in0.0 mm
07:40 AM 68.7°F20.4°C 54.8°F12.7°C 61% 4.5 mph SW7.2 kmh SW 6.9 mph11.1 kmh 30.05 in1017.6 mb 0.00 in0.0 mm 0.00 in0.0 mm 0.00 in0.0 mm
07:50 AM 69.3°F20.7°C 55.3°F12.9°C 61% 5.5 mph SW8.9 kmh SW 8.3 mph13.4 kmh 30.04 in1017.3 mb 0.00 in0.0 mm 0.00 in0.0 mm 0.00 in0.0 mm
08:00 AM 69.3°F20.7°C 54.8°F12.7°C 60% 4.5 mph SW7.2 kmh SW 8.3 mph13.4 kmh 30.05 in1017.6 mb 0.00 in0.0 mm 0.00 in0.0 mm 0.00 in0.0 mm
08:10 AM 67.8°F19.9°C 53.5°F11.9°C 60% 6.2 mph S10.0 kmh S 8.3 mph13.4 kmh 30.05 in1017.6 mb 0.00 in0.0 mm 0.00 in0.0 mm 0.00 in0.0 mm
08:20 AM 70.2°F21.2°C 54.7°F12.6°C 58% 5.1 mph S8.2 kmh S 6.9 mph11.1 kmh 30.05 in1017.6 mb 0.00 in0.0 mm 0.00 in0.0 mm 0.00 in0.0 mm
08:30 AM 69.8°F21.0°C 54.4°F12.4°C 58% 6.0 mph W9.7 kmh W 9.2 mph14.8 kmh 30.05 in1017.6 mb 0.00 in0.0 mm 0.00 in0.0 mm 0.00 in0.0 mm
08:40 AM 69.6°F20.9°C 52.8°F11.6°C 55% 7.8 mph SW12.6 kmh SW 11.4 mph18.3 kmh 30.04 in1017.3 mb 0.00 in0.0 mm 0.00 in0.0 mm 0.00 in0.0 mm
08:50 AM 69.6°F20.9°C 51.8°F11.0°C 53% 5.5 mph WSW8.9 kmh WSW 11.4 mph18.3 kmh 30.04 in1017.3 mb 0.00 in0.0 mm 0.00 in0.0 mm 0.00 in0.0 mm
09:00 AM 67.5°F19.7°C 51.2°F10.7°C 56% 5.4 mph SW8.7 kmh SW 8.3 mph13.4 kmh 30.04 in1017.3 mb 0.00 in0.0 mm 0.00 in0.0 mm 0.00 in0.0 mm
09:10 AM 68.2°F20.1°C 51.4°F10.8°C 55% 6.2 mph SSW10.0 kmh SSW 12.1 mph19.5 kmh 30.05 in1017.6 mb 0.00 in0.0 mm 0.00 in0.0 mm 0.00 in0.0 mm
09:20 AM 68.2°F20.1°C 52.4°F11.3°C 57% 5.2 mph SSE8.4 kmh SSE 6.9 mph11.1 kmh 30.05 in1017.6 mb 0.00 in0.0 mm 0.00 in0.0 mm 0.00 in0.0 mm
09:30 AM 70.0°F21.1°C 53.1°F11.7°C 55% 3.5 mph WSW5.6 kmh WSW 5.4 mph8.7 kmh 30.05 in1017.6 mb 0.00 in0.0 mm 0.00 in0.0 mm 0.00 in0.0 mm
09:40 AM 70.2°F21.2°C 51.7°F10.9°C 52% 6.7 mph SSW10.8 kmh SSW 9.2 mph14.8 kmh 30.04 in1017.3 mb 0.00 in0.0 mm 0.00 in0.0 mm 0.00 in0.0 mm
09:50 AM 70.2°F21.2°C 51.7°F10.9°C 52% 6.6 mph SSW10.6 kmh SSW 10.7 mph17.2 kmh 30.04 in1017.3 mb 0.00 in0.0 mm 0.00 in0.0 mm 0.00 in0.0 mm
10:00 AM 70.3°F21.3°C 51.9°F11.1°C 52% 7.5 mph S12.1 kmh S 12.1 mph19.5 kmh 30.04 in1017.3 mb 0.00 in0.0 mm 0.00 in0.0 mm 0.00 in0.0 mm
10:10 AM 70.3°F21.3°C 51.9°F11.1°C 52% 6.5 mph SSW10.5 kmh SSW 9.8 mph15.8 kmh 30.04 in1017.3 mb 0.00 in0.0 mm 0.00 in0.0 mm 0.00 in0.0 mm
10:20 AM 71.6°F22.0°C 52.0°F11.1°C 50% 5.3 mph SW8.5 kmh SW 7.6 mph12.2 kmh 30.04 in1017.3 mb 0.00 in0.0 mm 0.00 in0.0 mm 0.00 in0.0 mm
10:30 AM 71.2°F21.8°C 52.2°F11.2°C 51% 5.4 mph SSW8.7 kmh SSW 7.6 mph12.2 kmh 30.03 in1016.9 mb 0.00 in0.0 mm 0.00 in0.0 mm 0.00 in0.0 mm
10:40 AM 70.7°F21.5°C 51.2°F10.7°C 50% 5.8 mph SSW9.3 kmh SSW 8.3 mph13.4 kmh 30.04 in1017.3 mb 0.00 in0.0 mm 0.00 in0.0 mm 0.00 in0.0 mm
10:50 AM 71.4°F21.9°C 50.2°F10.1°C 47% 7.2 mph SW11.6 kmh SW 10.7 mph17.2 kmh 30.04 in1017.3 mb 0.00 in0.0 mm 0.00 in0.0 mm 0.00 in0.0 mm
11:00 AM 71.6°F22.0°C 50.3°F10.2°C 47% 6.1 mph S9.8 kmh S 8.3 mph13.4 kmh 30.03 in1016.9 mb 0.00 in0.0 mm 0.00 in0.0 mm 0.00 in0.0 mm
11:10 AM 72.5°F22.5°C 47.5°F8.6°C 41% 5.3 mph SW8.5 kmh SW 8.3 mph13.4 kmh 30.04 in1017.3 mb 0.00 in0.0 mm 0.00 in0.0 mm 0.00 in0.0 mm
11:20 AM 72.9°F22.7°C 47.2°F8.4°C 40% 5.8 mph SSW9.3 kmh SSW 7.6 mph12.2 kmh 30.03 in1016.9 mb 0.00 in0.0 mm 0.00 in0.0 mm 0.00 in0.0 mm
11:30 AM 73.4°F23.0°C 46.3°F7.9°C 38% 4.6 mph E7.4 kmh E 6.0 mph9.7 kmh 30.02 in1016.6 mb 0.00 in0.0 mm 0.00 in0.0 mm 0.00 in0.0 mm
11:40 AM 74.7°F23.7°C 43.7°F6.5°C 33% 5.2 mph SE8.4 kmh SE 9.2 mph14.8 kmh 30.02 in1016.6 mb 0.00 in0.0 mm 0.00 in0.0 mm 0.00 in0.0 mm
11:50 AM 76.1°F24.5°C 45.7°F7.6°C 34% 4.5 mph WSW7.2 kmh WSW 7.6 mph12.2 kmh 30.02 in1016.6 mb 0.00 in0.0 mm 0.00 in0.0 mm 0.00 in0.0 mm
12:00 PM 76.5°F24.7°C 45.3°F7.4°C 33% 5.8 mph SE9.3 kmh SE 9.2 mph14.8 kmh 30.01 in1016.3 mb 0.00 in0.0 mm 0.00 in0.0 mm 0.00 in0.0 mm
12:10 PM 76.8°F24.9°C 45.6°F7.6°C 33% 5.1 mph SSW8.2 kmh SSW 7.6 mph12.2 kmh 30.00 in1015.9 mb 0.00 in0.0 mm 0.00 in0.0 mm 0.00 in0.0 mm
12:20 PM 76.3°F24.6°C 45.9°F7.7°C 34% 5.8 mph SSW9.3 kmh SSW 7.6 mph12.2 kmh 30.01 in1016.3 mb 0.00 in0.0 mm 0.00 in0.0 mm 0.00 in0.0 mm
12:30 PM 75.7°F24.3°C 46.2°F7.9°C 35% 7.0 mph SW11.3 kmh SW 9.2 mph14.8 kmh 30.00 in1015.9 mb 0.00 in0.0 mm 0.00 in0.0 mm 0.00 in0.0 mm
12:40 PM 74.1°F23.4°C 42.4°F5.8°C 32% 8.5 mph SW13.7 kmh SW 11.4 mph18.3 kmh 29.99 in1015.6 mb 0.00 in0.0 mm 0.00 in0.0 mm 0.00 in0.0 mm
12:50 PM 75.2°F24.0°C 44.2°F6.8°C 33% 6.6 mph SW10.6 kmh SW 11.4 mph18.3 kmh 29.98 in1015.2 mb 0.00 in0.0 mm 0.00 in0.0 mm 0.00 in0.0 mm
01:00 PM 75.2°F24.0°C 45.7°F7.6°C 35% 7.9 mph SW12.7 kmh SW 10.7 mph17.2 kmh 29.99 in1015.6 mb 0.01 in0.3 mm 0.01 in0.3 mm 0.01 in0.3 mm
01:10 PM 74.8°F23.8°C 43.0°F6.1°C 32% 7.7 mph SSW12.4 kmh SSW 9.8 mph15.8 kmh 29.98 in1015.2 mb 0.01 in0.3 mm 0.00 in0.0 mm 0.01 in0.3 mm
01:20 PM 74.3°F23.5°C 47.1°F8.4°C 38% 6.8 mph SSW10.9 kmh SSW 8.3 mph13.4 kmh 29.98 in1015.2 mb 0.01 in0.3 mm 0.00 in0.0 mm 0.01 in0.3 mm
01:30 PM 75.0°F23.9°C 49.8°F9.9°C 41% 6.3 mph SW10.1 kmh SW 9.8 mph15.8 kmh 29.98 in1015.2 mb 0.01 in0.3 mm 0.00 in0.0 mm 0.01 in0.3 mm
01:40 PM 75.0°F23.9°C 51.0°F10.6°C 43% 7.3 mph S11.7 kmh S 9.2 mph14.8 kmh 29.98 in1015.2 mb 0.01 in0.3 mm 0.00 in0.0 mm 0.01 in0.3 mm
01:50 PM 75.2°F24.0°C 52.4°F11.3°C 45% 7.2 mph S11.6 kmh S 10.7 mph17.2 kmh 29.96 in1014.6 mb 0.01 in0.3 mm 0.00 in0.0 mm 0.01 in0.3 mm
02:00 PM 76.5°F24.7°C 52.3°F11.3°C 43% 5.7 mph SW9.2 kmh SW 8.3 mph13.4 kmh 29.96 in1014.6 mb 0.00 in0.0 mm 0.00 in0.0 mm 0.01 in0.3 mm
02:10 PM 76.3°F24.6°C 53.4°F11.9°C 45% 5.8 mph SSW9.3 kmh SSW 9.2 mph14.8 kmh 29.96 in1014.6 mb 0.00 in0.0 mm 0.00 in0.0 mm 0.01 in0.3 mm
02:20 PM 75.4°F24.1°C 54.4°F12.4°C 48% 6.9 mph SW11.1 kmh SW 9.8 mph15.8 kmh 29.96 in1014.6 mb 0.00 in0.0 mm 0.00 in0.0 mm 0.01 in0.3 mm
02:30 PM 75.0°F23.9°C 55.2°F12.9°C 50% 6.3 mph SSW10.1 kmh SSW 11.4 mph18.3 kmh 29.95 in1014.2 mb 0.00 in0.0 mm 0.00 in0.0 mm 0.01 in0.3 mm
02:40 PM 73.2°F22.9°C 54.6°F12.6°C 52% 8.1 mph SW13.0 kmh SW 10.7 mph17.2 kmh 29.95 in1014.2 mb 0.00 in0.0 mm 0.00 in0.0 mm 0.01 in0.3 mm
02:50 PM 72.9°F22.7°C 54.8°F12.7°C 53% 7.2 mph S11.6 kmh S 11.4 mph18.3 kmh 29.95 in1014.2 mb 0.00 in0.0 mm 0.00 in0.0 mm 0.01 in0.3 mm
03:00 PM 72.1°F22.3°C 56.1°F13.4°C 57% 8.9 mph SSW14.3 kmh SSW 13.6 mph21.9 kmh 29.94 in1013.9 mb 0.00 in0.0 mm 0.00 in0.0 mm 0.01 in0.3 mm
03:10 PM 71.8°F22.1°C 56.2°F13.4°C 58% 8.9 mph S14.3 kmh S 13.6 mph21.9 kmh 29.94 in1013.9 mb 0.00 in0.0 mm 0.00 in0.0 mm 0.01 in0.3 mm
03:20 PM 71.6°F22.0°C 57.0°F13.9°C 60% 8.8 mph SSW14.2 kmh SSW 13.6 mph21.9 kmh 29.94 in1013.9 mb 0.00 in0.0 mm 0.00 in0.0 mm 0.01 in0.3 mm
03:30 PM 72.1°F22.3°C 56.6°F13.7°C 58% 7.0 mph WSW11.3 kmh WSW 12.1 mph19.5 kmh 29.94 in1013.9 mb 0.00 in0.0 mm 0.00 in0.0 mm 0.01 in0.3 mm
03:40 PM 70.9°F21.6°C 56.3°F13.5°C 60% 8.7 mph SW14.0 kmh SW 10.7 mph17.2 kmh 29.94 in1013.9 mb 0.00 in0.0 mm 0.00 in0.0 mm 0.01 in0.3 mm
03:50 PM 71.2°F21.8°C 56.7°F13.7°C 60% 7.9 mph S12.7 kmh S 10.7 mph17.2 kmh 29.93 in1013.5 mb 0.00 in0.0 mm 0.00 in0.0 mm 0.01 in0.3 mm
04:00 PM 71.6°F22.0°C 57.0°F13.9°C 60% 6.0 mph SW9.7 kmh SW 8.3 mph13.4 kmh 29.93 in1013.5 mb 0.00 in0.0 mm 0.00 in0.0 mm 0.01 in0.3 mm
04:10 PM 70.7°F21.5°C 56.2°F13.4°C 60% 7.7 mph S12.4 kmh S 9.8 mph15.8 kmh 29.93 in1013.5 mb 0.00 in0.0 mm 0.00 in0.0 mm 0.01 in0.3 mm
04:20 PM 69.8°F21.0°C 56.2°F13.4°C 62% 7.5 mph SW12.1 kmh SW 10.7 mph17.2 kmh 29.91 in1012.9 mb 0.00 in0.0 mm 0.00 in0.0 mm 0.01 in0.3 mm
04:30 PM 69.4°F20.8°C 55.9°F13.3°C 62% 6.6 mph SW10.6 kmh SW 9.2 mph14.8 kmh 29.92 in1013.2 mb 0.00 in0.0 mm 0.00 in0.0 mm 0.01 in0.3 mm
04:40 PM 68.9°F20.5°C 55.4°F13.0°C 62% 8.5 mph S13.7 kmh S 11.4 mph18.3 kmh 29.92 in1013.2 mb 0.00 in0.0 mm 0.00 in0.0 mm 0.01 in0.3 mm
04:50 PM 69.4°F20.8°C 55.4°F13.0°C 61% 7.2 mph SSW11.6 kmh SSW 10.7 mph17.2 kmh 29.91 in1012.9 mb 0.00 in0.0 mm 0.00 in0.0 mm 0.01 in0.3 mm
05:00 PM 68.2°F20.1°C 55.1°F12.8°C 63% 5.3 mph SW8.5 kmh SW 7.6 mph12.2 kmh 29.91 in1012.9 mb 0.00 in0.0 mm 0.00 in0.0 mm 0.01 in0.3 mm
05:10 PM 68.7°F20.4°C 55.6°F13.1°C 63% 4.4 mph SSW7.1 kmh SSW 7.6 mph12.2 kmh 29.91 in1012.9 mb 0.00 in0.0 mm 0.00 in0.0 mm 0.01 in0.3 mm
05:20 PM 68.5°F20.3°C 55.5°F13.1°C 63% 5.0 mph SW8.0 kmh SW 9.2 mph14.8 kmh 29.91 in1012.9 mb 0.00 in0.0 mm 0.00 in0.0 mm 0.01 in0.3 mm
05:30 PM 68.4°F20.2°C 55.3°F12.9°C 63% 5.9 mph SSW9.5 kmh SSW 7.6 mph12.2 kmh 29.90 in1012.5 mb 0.00 in0.0 mm 0.00 in0.0 mm 0.01 in0.3 mm
05:40 PM 68.0°F20.0°C 55.4°F13.0°C 64% 4.8 mph S7.7 kmh S 7.6 mph12.2 kmh 29.89 in1012.2 mb 0.00 in0.0 mm 0.00 in0.0 mm 0.01 in0.3 mm
05:50 PM 67.5°F19.7°C 55.3°F12.9°C 65% 4.4 mph SW7.1 kmh SW 6.0 mph9.7 kmh 29.89 in1012.2 mb 0.00 in0.0 mm 0.00 in0.0 mm 0.01 in0.3 mm
06:00 PM 67.3°F19.6°C 55.6°F13.1°C 66% 4.3 mph SW6.9 kmh SW 6.9 mph11.1 kmh 29.89 in1012.2 mb 0.00 in0.0 mm 0.00 in0.0 mm 0.01 in0.3 mm
06:10 PM 67.1°F19.5°C 55.4°F13.0°C 66% 4.7 mph S7.6 kmh S 6.9 mph11.1 kmh 29.89 in1012.2 mb 0.00 in0.0 mm 0.00 in0.0 mm 0.01 in0.3 mm
06:20 PM 68.0°F20.0°C 56.2°F13.4°C 66% 3.3 mph WSW5.3 kmh WSW 5.4 mph8.7 kmh 29.89 in1012.2 mb 0.00 in0.0 mm 0.00 in0.0 mm 0.01 in0.3 mm
06:30 PM 66.9°F19.4°C 54.8°F12.7°C 65% 6.2 mph SSW10.0 kmh SSW 9.2 mph14.8 kmh 29.89 in1012.2 mb 0.00 in0.0 mm 0.00 in0.0 mm 0.01 in0.3 mm
06:40 PM 65.7°F18.7°C 54.8°F12.7°C 68% 5.4 mph SW8.7 kmh SW 8.3 mph13.4 kmh 29.88 in1011.9 mb 0.00 in0.0 mm 0.00 in0.0 mm 0.01 in0.3 mm
06:50 PM 65.1°F18.4°C 55.1°F12.8°C 70% 4.6 mph SW7.4 kmh SW 6.0 mph9.7 kmh 29.88 in1011.9 mb 0.00 in0.0 mm 0.00 in0.0 mm 0.01 in0.3 mm
07:00 PM 64.6°F18.1°C 54.6°F12.6°C 70% 5.1 mph SW8.2 kmh SW 7.6 mph12.2 kmh 29.88 in1011.9 mb 0.00 in0.0 mm 0.00 in0.0 mm 0.01 in0.3 mm
07:10 PM 63.9°F17.7°C 54.3°F12.4°C 71% 4.9 mph SSW7.9 kmh SSW 7.6 mph12.2 kmh 29.88 in1011.9 mb 0.00 in0.0 mm 0.00 in0.0 mm 0.01 in0.3 mm
07:20 PM 63.1°F17.3°C 55.1°F12.8°C 75% 4.2 mph S6.8 kmh S 6.9 mph11.1 kmh 29.87 in1011.5 mb 0.00 in0.0 mm 0.00 in0.0 mm 0.01 in0.3 mm
07:30 PM 62.4°F16.9°C 54.8°F12.7°C 76% 6.0 mph S9.7 kmh S 7.6 mph12.2 kmh 29.87 in1011.5 mb 0.00 in0.0 mm 0.00 in0.0 mm 0.01 in0.3 mm
07:40 PM 61.9°F16.6°C 55.0°F12.8°C 78% 4.8 mph SW7.7 kmh SW 6.9 mph11.1 kmh 29.87 in1011.5 mb 0.00 in0.0 mm 0.00 in0.0 mm 0.01 in0.3 mm
07:50 PM 61.5°F16.4°C 55.0°F12.8°C 79% 4.2 mph SSW6.8 kmh SSW 6.0 mph9.7 kmh 29.87 in1011.5 mb 0.00 in0.0 mm 0.00 in0.0 mm 0.01 in0.3 mm
08:00 PM 61.0°F16.1°C 54.4°F12.4°C 79% 5.2 mph SSW8.4 kmh SSW 6.9 mph11.1 kmh 29.87 in1011.5 mb 0.00 in0.0 mm 0.00 in0.0 mm 0.01 in0.3 mm
08:10 PM 60.6°F15.9°C 54.4°F12.4°C 80% 3.7 mph SSW6.0 kmh SSW 4.5 mph7.2 kmh 29.86 in1011.2 mb 0.00 in0.0 mm 0.00 in0.0 mm 0.01 in0.3 mm
08:20 PM 60.3°F15.7°C 54.1°F12.3°C 80% 4.1 mph SSW6.6 kmh SSW 6.9 mph11.1 kmh 29.87 in1011.5 mb 0.00 in0.0 mm 0.00 in0.0 mm 0.01 in0.3 mm
08:30 PM 60.1°F15.6°C 54.2°F12.3°C 81% 3.4 mph SSW5.5 kmh SSW 4.5 mph7.2 kmh 29.87 in1011.5 mb 0.00 in0.0 mm 0.00 in0.0 mm 0.01 in0.3 mm
08:40 PM 59.7°F15.4°C 53.9°F12.2°C 81% 3.7 mph S6.0 kmh S 5.4 mph8.7 kmh 29.87 in1011.5 mb 0.00 in0.0 mm 0.00 in0.0 mm 0.01 in0.3 mm
08:50 PM 59.7°F15.4°C 54.2°F12.3°C 82% 3.9 mph SSW6.3 kmh SSW 5.4 mph8.7 kmh 29.86 in1011.2 mb 0.00 in0.0 mm 0.00 in0.0 mm 0.01 in0.3 mm
09:00 PM 59.5°F15.3°C 54.1°F12.3°C 82% 3.1 mph SW5.0 kmh SW 3.8 mph6.1 kmh 29.85 in1010.8 mb 0.00 in0.0 mm 0.00 in0.0 mm 0.01 in0.3 mm
09:10 PM 59.4°F15.2°C 53.9°F12.2°C 82% 4.7 mph SSW7.6 kmh SSW 6.0 mph9.7 kmh 29.86 in1011.2 mb 0.00 in0.0 mm 0.00 in0.0 mm 0.01 in0.3 mm
09:20 PM 59.2°F15.1°C 54.0°F12.2°C 83% 4.9 mph SW7.9 kmh SW 6.9 mph11.1 kmh 29.86 in1011.2 mb 0.00 in0.0 mm 0.00 in0.0 mm 0.01 in0.3 mm
09:30 PM 58.8°F14.9°C 53.7°F12.1°C 83% 4.1 mph SW6.6 kmh SW 6.0 mph9.7 kmh 29.86 in1011.2 mb 0.00 in0.0 mm 0.00 in0.0 mm 0.01 in0.3 mm
09:40 PM 58.8°F14.9°C 53.7°F12.1°C 83% 4.0 mph SSW6.4 kmh SSW 6.0 mph9.7 kmh 29.86 in1011.2 mb 0.00 in0.0 mm 0.00 in0.0 mm 0.01 in0.3 mm
09:50 PM 58.8°F14.9°C 54.0°F12.2°C 84% 4.2 mph SSW6.8 kmh SSW 6.0 mph9.7 kmh 29.85 in1010.8 mb 0.00 in0.0 mm 0.00 in0.0 mm 0.01 in0.3 mm
10:00 PM 59.0°F15.0°C 54.2°F12.3°C 84% 3.0 mph SW4.8 kmh SW 5.4 mph8.7 kmh 29.84 in1010.5 mb 0.00 in0.0 mm 0.00 in0.0 mm 0.01 in0.3 mm
10:10 PM 59.2°F15.1°C 54.0°F12.2°C 83% 2.5 mph SSW4.0 kmh SSW 3.8 mph6.1 kmh 29.84 in1010.5 mb 0.00 in0.0 mm 0.00 in0.0 mm 0.01 in0.3 mm
10:20 PM 59.2°F15.1°C 54.0°F12.2°C 83% 2.8 mph S4.5 kmh S 4.5 mph7.2 kmh 29.84 in1010.5 mb 0.00 in0.0 mm 0.00 in0.0 mm 0.01 in0.3 mm
10:30 PM 59.0°F15.0°C 53.5°F11.9°C 82% 2.0 mph SW3.2 kmh SW 3.8 mph6.1 kmh 29.84 in1010.5 mb 0.00 in0.0 mm 0.00 in0.0 mm 0.01 in0.3 mm
10:40 PM 59.0°F15.0°C 53.5°F11.9°C 82% 1.8 mph S2.9 kmh S 3.8 mph6.1 kmh 29.83 in1010.2 mb 0.00 in0.0 mm 0.00 in0.0 mm 0.01 in0.3 mm
10:50 PM 59.0°F15.0°C 53.2°F11.8°C 81% 1.8 mph SW2.9 kmh SW 3.8 mph6.1 kmh 29.83 in1010.2 mb 0.00 in0.0 mm 0.00 in0.0 mm 0.01 in0.3 mm
11:00 PM 59.2°F15.1°C 53.0°F11.7°C 80% 3.1 mph SSW5.0 kmh SSW 3.8 mph6.1 kmh 29.82 in1009.8 mb 0.00 in0.0 mm 0.00 in0.0 mm 0.01 in0.3 mm
11:10 PM 59.4°F15.2°C 53.2°F11.8°C 80% 2.4 mph WSW3.9 kmh WSW 3.8 mph6.1 kmh 29.83 in1010.2 mb 0.00 in0.0 mm 0.00 in0.0 mm 0.01 in0.3 mm
11:20 PM 59.4°F15.2°C 53.2°F11.8°C 80% 3.2 mph WSW5.1 kmh WSW 6.9 mph11.1 kmh 29.82 in1009.8 mb 0.00 in0.0 mm 0.00 in0.0 mm 0.01 in0.3 mm
11:30 PM 59.5°F15.3°C 54.1°F12.3°C 82% 4.4 mph SSW7.1 kmh SSW 6.9 mph11.1 kmh 29.82 in1009.8 mb 0.00 in0.0 mm 0.00 in0.0 mm 0.01 in0.3 mm
11:40 PM 59.7°F15.4°C 54.2°F12.3°C 82% 5.0 mph SSW8.0 kmh SSW 6.9 mph11.1 kmh 29.81 in1009.5 mb 0.00 in0.0 mm 0.00 in0.0 mm 0.01 in0.3 mm
11:50 PM 59.5°F15.3°C 54.1°F12.3°C 82% 5.5 mph SW8.9 kmh SW 6.9 mph11.1 kmh 29.81 in1009.5 mb 0.00 in0.0 mm 0.00 in0.0 mm 0.01 in0.3 mm